Taza Mas — WCY7704 — position and weather

sailwx.info

Track history (hours):
 
Tides and Currents Weather Stations Pressure Air Temp Water Temp Dewpoint Dewpoint Depression Visibility Wind Speed Wind Dir Waves Ship Positions

Taza Mas

Owner: TAZA MAS INC, FORT WORTH, TX. More information available from US FCC via Universal Licensing System and Coast Guard Vessel Documentation Center.

Last reported at 2015-Mar-24 13:19 UTC. Time now 2015-Mar-29 13:44 UTC.
Position N 18°24' W 064°36'.

Length 560 m; draft 16.1 m.

Type: Dredging. MMSI: 338046997.

Date/timePositionNaut miles runAvg speedWind from/ knotsBaromVisibWave heightAir tempDewpointWater temp
2015-Mar-24 13:19N 18°24' W 064°36'2 0.1
2015-Mar-23 12:15N 18°23' W 064°38'6 0.1
2015-Mar-21 17:16N 18°24' W 064°32'  
2015-Mar-19 12:32N 18°26' W 064°45'0 0.3
2015-Mar-19 11:34N 18°26' W 064°45'0 0.0
2015-Mar-19 10:33N 18°26' W 064°45'0 0.0
2015-Mar-19 09:33N 18°26' W 064°45'0 0.0
2015-Mar-19 08:32N 18°26' W 064°45'0 0.0
2015-Mar-19 07:33N 18°26' W 064°45'0 0.0
2015-Mar-19 06:33N 18°26' W 064°45'0 0.0
2015-Mar-19 05:33N 18°26' W 064°45'0 0.0
2015-Mar-19 04:33N 18°26' W 064°45'0 0.0
2015-Mar-19 03:32N 18°26' W 064°45'0 0.0
2015-Mar-19 02:32N 18°26' W 064°45'0 0.0
2015-Mar-19 01:32N 18°26' W 064°45'0 0.0
2015-Mar-19 00:33N 18°26' W 064°45'0 0.0
2015-Mar-18 23:33N 18°26' W 064°45'0 0.0
2015-Mar-18 22:33N 18°26' W 064°45'0 0.0
2015-Mar-18 21:33N 18°26' W 064°45'0 0.0
2015-Mar-18 20:33N 18°26' W 064°45'0 0.0
2015-Mar-18 19:33N 18°26' W 064°45'0 0.0
2015-Mar-18 18:33N 18°26' W 064°45'0 0.0
2015-Mar-18 17:32N 18°26' W 064°45'0 0.0
2015-Mar-18 16:32N 18°26' W 064°45'0 0.0
2015-Mar-18 15:34N 18°26' W 064°45'0 0.0
2015-Mar-18 14:33N 18°26' W 064°45'5 4.5
2015-Mar-18 13:32N 18°22' W 064°45'0 0.1
2015-Mar-18 12:32N 18°22' W 064°45'0 0.0
2015-Mar-18 11:33N 18°22' W 064°45'0 0.0
2015-Mar-18 10:33N 18°22' W 064°45'0 0.0
2015-Mar-18 09:32N 18°22' W 064°45'0 0.0
2015-Mar-18 08:32N 18°22' W 064°45'0 0.0
2015-Mar-18 07:33N 18°22' W 064°45'0 0.0
2015-Mar-18 06:32N 18°22' W 064°45'0 0.0
2015-Mar-18 05:33N 18°22' W 064°45'0 0.0
2015-Mar-18 04:33N 18°22' W 064°45'0 0.0
2015-Mar-18 03:32N 18°22' W 064°45'0 0.0
2015-Mar-18 02:34N 18°22' W 064°45'0 0.0
2015-Mar-18 01:30N 18°22' W 064°45'0 0.0
2015-Mar-18 00:32N 18°22' W 064°45'0 0.0
2015-Mar-17 23:33N 18°22' W 064°45'0 0.0
2015-Mar-17 22:33N 18°22' W 064°45'0 0.0
2015-Mar-17 21:32N 18°22' W 064°45'0 0.0
2015-Mar-17 20:33N 18°22' W 064°45'5 4.4
2015-Mar-17 19:30N 18°19' W 064°49'  
Track history (hours):
 
Tides and Currents Weather Stations Pressure Air Temp Water Temp Dewpoint Dewpoint Depression Visibility Wind Speed Wind Dir Waves Ship Positions

Taza Mas

Owner: TAZA MAS INC, FORT WORTH, TX. More information available from US FCC via Universal Licensing System and Coast Guard Vessel Documentation Center.

Last reported at 2015-Mar-24 13:19 UTC. Time now 2015-Mar-29 13:44 UTC.
Position N 18°24' W 064°36'.

Length 560 m; draft 16.1 m.

Type: Dredging. MMSI: 338046997.

Date/timePositionNaut miles runAvg speedWind from/ knotsBaromVisibWave heightAir tempDewpointWater temp
2015-Mar-24 13:19N 18°24' W 064°36'2 0.1
2015-Mar-23 12:15N 18°23' W 064°38'6 0.1
2015-Mar-21 17:16N 18°24' W 064°32'  
2015-Mar-19 12:32N 18°26' W 064°45'0 0.3
2015-Mar-19 11:34N 18°26' W 064°45'0 0.0
2015-Mar-19 10:33N 18°26' W 064°45'0 0.0
2015-Mar-19 09:33N 18°26' W 064°45'0 0.0
2015-Mar-19 08:32N 18°26' W 064°45'0 0.0
2015-Mar-19 07:33N 18°26' W 064°45'0 0.0
2015-Mar-19 06:33N 18°26' W 064°45'0 0.0
2015-Mar-19 05:33N 18°26' W 064°45'0 0.0
2015-Mar-19 04:33N 18°26' W 064°45'0 0.0
2015-Mar-19 03:32N 18°26' W 064°45'0 0.0
2015-Mar-19 02:32N 18°26' W 064°45'0 0.0
2015-Mar-19 01:32N 18°26' W 064°45'0 0.0
2015-Mar-19 00:33N 18°26' W 064°45'0 0.0
2015-Mar-18 23:33N 18°26' W 064°45'0 0.0
2015-Mar-18 22:33N 18°26' W 064°45'0 0.0
2015-Mar-18 21:33N 18°26' W 064°45'0 0.0
2015-Mar-18 20:33N 18°26' W 064°45'0 0.0
2015-Mar-18 19:33N 18°26' W 064°45'0 0.0
2015-Mar-18 18:33N 18°26' W 064°45'0 0.0
2015-Mar-18 17:32N 18°26' W 064°45'0 0.0
2015-Mar-18 16:32N 18°26' W 064°45'0 0.0
2015-Mar-18 15:34N 18°26' W 064°45'0 0.0
2015-Mar-18 14:33N 18°26' W 064°45'5 4.5
2015-Mar-18 13:32N 18°22' W 064°45'0 0.1
2015-Mar-18 12:32N 18°22' W 064°45'0 0.0
2015-Mar-18 11:33N 18°22' W 064°45'0 0.0
2015-Mar-18 10:33N 18°22' W 064°45'0 0.0
2015-Mar-18 09:32N 18°22' W 064°45'0 0.0
2015-Mar-18 08:32N 18°22' W 064°45'0 0.0
2015-Mar-18 07:33N 18°22' W 064°45'0 0.0
2015-Mar-18 06:32N 18°22' W 064°45'0 0.0
2015-Mar-18 05:33N 18°22' W 064°45'0 0.0
2015-Mar-18 04:33N 18°22' W 064°45'0 0.0
2015-Mar-18 03:32N 18°22' W 064°45'0 0.0
2015-Mar-18 02:34N 18°22' W 064°45'0 0.0
2015-Mar-18 01:30N 18°22' W 064°45'0 0.0
2015-Mar-18 00:32N 18°22' W 064°45'0 0.0
2015-Mar-17 23:33N 18°22' W 064°45'0 0.0
2015-Mar-17 22:33N 18°22' W 064°45'0 0.0
2015-Mar-17 21:32N 18°22' W 064°45'0 0.0
2015-Mar-17 20:33N 18°22' W 064°45'5 4.4
2015-Mar-17 19:30N 18°19' W 064°49'  

Dump ship's entire track history